Time;durP1;ratioP1;P1;durP2;ratioP2;P2;SDS_P1;SDS_P2;PMS_P1;PMS_P2;Temp;Humidity;BMP_temperature;BMP_pressure;BME280_temperature;BME280_humidity;BME280_pressure;Samples;Min_cycle;Max_cycle;Signal;HPM_P1;HPM_P2
2023/01/29 00:03:52;;;;;;;79.05;30.67;;;;;;;1.85;100.00;97828.94;4954770;29;20031;-86
2023/01/29 00:06:18;;;;;;;66.15;30.50;;;;;;;1.91;100.00;97830.56;4951970;28;20130;-88
2023/01/29 00:08:43;;;;;;;70.40;32.03;;;;;;;2.06;100.00;97849.53;5007467;28;20443;-87
2023/01/29 00:11:09;;;;;;;74.65;34.83;;;;;;;2.18;100.00;97865.06;5069926;28;20499;-88
2023/01/29 00:13:35;;;;;;;82.78;34.63;;;;;;;2.13;100.00;97860.81;5052210;28;20083;-88
2023/01/29 00:16:02;;;;;;;92.30;37.30;;;;;;;2.03;100.00;97859.31;5067933;28;20032;-87
2023/01/29 00:18:28;;;;;;;76.18;34.13;;;;;;;1.81;100.00;97844.88;5037547;28;20021;-88
2023/01/29 00:20:54;;;;;;;75.00;34.00;;;;;;;1.91;100.00;97873.63;5036996;28;20025;-88
2023/01/29 00:23:20;;;;;;;77.10;32.05;;;;;;;1.97;100.00;97877.94;5045385;28;20036;-87
2023/01/29 00:25:45;;;;;;;76.32;33.10;;;;;;;1.92;100.00;97872.75;5049255;28;20484;-87
2023/01/29 00:28:11;;;;;;;68.20;29.35;;;;;;;1.92;100.00;97867.47;5046940;28;20052;-88
2023/01/29 00:30:37;;;;;;;70.43;28.98;;;;;;;1.91;100.00;97873.63;5036760;28;20467;-87
2023/01/29 00:33:03;;;;;;;69.53;28.73;;;;;;;1.89;100.00;97878.09;5044953;28;20059;-88
2023/01/29 00:35:29;;;;;;;82.22;33.97;;;;;;;1.91;100.00;97883.31;5048487;28;20020;-87
2023/01/29 00:37:55;;;;;;;75.15;31.27;;;;;;;1.84;100.00;97872.06;5043840;28;20024;-87
2023/01/29 00:40:21;;;;;;;71.38;30.20;;;;;;;1.92;100.00;97891.19;5045114;28;20017;-87
2023/01/29 00:45:32;;;;;;;71.85;30.23;;;;;;;1.97;100.00;97893.75;5053909;28;20079;-87
2023/01/29 00:47:57;;;;;;;73.25;31.58;;;;;;;1.96;100.00;97886.72;5046600;28;20416;-86
2023/01/29 00:50:23;;;;;;;62.97;28.23;;;;;;;1.94;100.00;97894.66;5039563;28;20405;-87
2023/01/29 00:52:50;;;;;;;65.63;28.55;;;;;;;1.98;100.00;97892.81;5062032;28;20029;-86
2023/01/29 00:55:16;;;;;;;66.63;29.45;;;;;;;2.02;100.00;97891.88;5061162;28;20112;-87
2023/01/29 00:57:42;;;;;;;68.85;28.17;;;;;;;2.00;100.00;97891.03;5042494;28;20117;-85
2023/01/29 01:00:10;;;;;;;68.68;27.73;;;;;;;2.03;100.00;97897.09;5070588;28;20031;-85
2023/01/29 01:03:21;;;;;;;66.32;28.00;;;;;;;2.01;100.00;97879.56;5053860;28;20044;-86
2023/01/29 01:05:22;;;;;;;65.05;27.65;;;;;;;2.01;100.00;97890.13;5056451;28;20125;-85
2023/01/29 01:07:53;;;;;;;65.55;26.52;;;;;;;1.96;100.00;97882.31;5055798;28;20028;-87
2023/01/29 01:10:27;;;;;;;68.53;30.50;;;;;;;2.00;100.00;97893.69;5063286;28;20025;-86
2023/01/29 01:12:52;;;;;;;71.03;30.23;;;;;;;2.02;100.00;97897.13;5036589;28;20036;-86
2023/01/29 01:15:18;;;;;;;77.07;32.30;;;;;;;1.98;100.00;97895.47;5061379;28;20034;-87
2023/01/29 01:17:44;;;;;;;82.28;35.08;;;;;;;1.97;100.00;97889.31;5047267;28;20040;-87
2023/01/29 01:20:12;;;;;;;75.25;31.85;;;;;;;1.96;100.00;97895.50;5038940;28;20102;-86
2023/01/29 01:22:37;;;;;;;75.32;30.95;;;;;;;1.93;100.00;97892.06;5051946;28;20025;-87
2023/01/29 01:25:04;;;;;;;67.95;27.67;;;;;;;1.97;100.00;97904.31;5041972;28;20436;-86
2023/01/29 01:27:30;;;;;;;62.50;26.75;;;;;;;1.92;100.00;97900.88;5044111;28;20028;-87
2023/01/29 01:29:55;;;;;;;60.40;27.40;;;;;;;1.94;100.00;97907.84;5061478;28;20027;-85
2023/01/29 01:32:21;;;;;;;66.88;28.65;;;;;;;1.77;100.00;97895.94;5042136;28;20025;-87
2023/01/29 01:34:46;;;;;;;63.65;27.98;;;;;;;1.72;100.00;97900.47;5048624;28;20028;-86
2023/01/29 01:37:12;;;;;;;66.57;28.75;;;;;;;1.85;100.00;97915.97;5050246;28;20080;-87
2023/01/29 01:39:37;;;;;;;61.22;27.98;;;;;;;1.94;100.00;97920.19;5055591;28;20055;-86
2023/01/29 01:42:04;;;;;;;70.10;28.73;;;;;;;1.86;100.00;97908.91;5054339;28;20060;-87
2023/01/29 01:44:57;;;;;;;67.43;28.45;;;;;;;1.94;100.00;97920.19;5034889;28;20028;-87
2023/01/29 01:47:30;;;;;;;70.13;28.30;;;;;;;1.95;100.00;97924.53;5043347;28;20060;-86
2023/01/29 01:50:01;;;;;;;69.05;28.58;;;;;;;1.90;100.00;97908.84;5043180;28;20085;-86
2023/01/29 01:52:28;;;;;;;65.85;27.05;;;;;;;1.94;100.00;97914.91;5045524;28;20027;-85
2023/01/29 01:54:54;;;;;;;67.43;28.77;;;;;;;1.95;100.00;97911.34;5044127;28;20106;-87
2023/01/29 01:57:23;;;;;;;67.57;28.88;;;;;;;1.93;100.00;97910.53;5046818;28;20067;-85
2023/01/29 01:59:53;;;;;;;62.38;27.95;;;;;;;1.77;100.00;97902.09;5051009;28;20478;-86
2023/01/29 02:10:40;;;;;;;76.32;32.17;;;;;;;1.93;100.00;97921.09;5056643;28;20394;-86
2023/01/29 02:13:06;;;;;;;77.82;34.45;;;;;;;1.79;100.00;97892.38;5071543;28;20502;-86
2023/01/29 02:15:32;;;;;;;83.63;35.63;;;;;;;1.99;100.00;97920.94;5036953;28;20108;-86
2023/01/29 02:17:58;;;;;;;86.90;35.67;;;;;;;1.88;100.00;97905.34;5045086;28;20056;-87
2023/01/29 02:20:26;;;;;;;83.97;33.50;;;;;;;1.97;100.00;97920.97;5049140;28;20061;-83
2023/01/29 02:23:26;;;;;;;83.10;34.33;;;;;;;2.02;100.00;97912.97;5043584;28;20117;-86
2023/01/29 02:26:42;;;;;;;81.82;35.03;;;;;;;2.08;100.00;97921.63;5060313;28;20032;-86
2023/01/29 02:29:21;;;;;;;86.53;36.67;;;;;;;2.07;100.00;97914.59;5031526;28;20121;-86
2023/01/29 02:32:11;;;;;;;90.47;36.85;;;;;;;2.10;100.00;97925.06;5058452;28;20115;-86
2023/01/29 02:38:01;;;;;;;93.88;36.35;;;;;;;2.06;100.00;97925.19;5065241;28;20058;-85
2023/01/29 02:40:35;;;;;;;88.85;37.90;;;;;;;2.10;100.00;97921.56;5042887;28;20059;-87
2023/01/29 02:43:13;;;;;;;84.88;36.33;;;;;;;2.17;100.00;97928.44;5055791;28;20025;-86
2023/01/29 02:45:58;;;;;;;83.13;35.85;;;;;;;2.09;100.00;97925.97;5064818;28;20027;-85
2023/01/29 02:48:24;;;;;;;90.90;38.17;;;;;;;2.12;100.00;97920.63;5046511;28;20035;-85
2023/01/29 02:51:02;;;;;;;93.75;38.85;;;;;;;2.13;100.00;97921.50;5039865;28;20029;-85
2023/01/29 02:53:42;;;;;;;106.65;42.28;;;;;;;2.08;100.00;97904.91;5039283;28;20033;-85
2023/01/29 02:56:11;;;;;;;92.45;40.63;;;;;;;2.21;100.00;97926.63;5061877;28;20089;-85
2023/01/29 02:58:52;;;;;;;93.63;41.10;;;;;;;2.18;100.00;97925.75;5060713;28;20028;-86
2023/01/29 03:01:35;;;;;;;106.85;43.42;;;;;;;2.19;100.00;97926.63;5041069;28;20068;-86
2023/01/29 03:04:07;;;;;;;107.28;43.90;;;;;;;2.22;100.00;97921.28;5038083;28;20064;-86
2023/01/29 03:06:37;;;;;;;102.32;40.50;;;;;;;2.23;100.00;97924.78;5051076;28;20036;-87
2023/01/29 03:09:07;;;;;;;87.60;39.08;;;;;;;2.09;100.00;97909.28;5054464;28;20033;-85
2023/01/29 03:11:40;;;;;;;104.03;43.20;;;;;;;2.19;100.00;97927.50;5045588;28;20471;-85
2023/01/29 03:14:15;;;;;;;101.63;41.55;;;;;;;2.21;100.00;97922.22;5037228;28;20377;-85
2023/01/29 03:16:50;;;;;;;86.93;35.05;;;;;;;2.23;100.00;97922.16;5045469;28;20021;-85
2023/01/29 03:19:35;;;;;;;84.82;35.03;;;;;;;2.15;100.00;97914.44;5057867;28;20541;-87
2023/01/29 03:22:03;;;;;;;85.65;36.30;;;;;;;2.11;100.00;97916.28;5046121;28;20048;-86
2023/01/29 03:33:13;;;;;;;87.05;32.40;;;;;;;2.14;100.00;97929.38;5051090;28;20468;-87
2023/01/29 03:35:43;;;;;;;77.30;33.05;;;;;;;2.12;100.00;97925.06;5042440;28;20028;-87
2023/01/29 03:38:10;;;;;;;76.32;34.90;;;;;;;2.13;100.00;97927.66;5034162;28;20048;-87
2023/01/29 03:40:49;;;;;;;86.05;36.08;;;;;;;2.13;100.00;97932.91;5053986;28;20476;-87
2023/01/29 03:43:25;;;;;;;85.55;35.55;;;;;;;2.11;100.00;97929.47;5049220;28;20063;-86
2023/01/29 03:46:22;;;;;;;72.13;32.13;;;;;;;2.11;100.00;97928.59;5051906;28;20041;-86
2023/01/29 03:49:12;;;;;;;77.88;31.88;;;;;;;2.16;100.00;97937.25;5059065;28;20025;-86
2023/01/29 03:51:47;;;;;;;66.38;28.02;;;;;;;2.13;100.00;97921.50;5056047;28;20025;-86
2023/01/29 03:54:25;;;;;;;64.55;28.27;;;;;;;2.13;100.00;97932.03;5068674;28;20047;-86
2023/01/29 03:57:14;;;;;;;53.08;26.15;;;;;;;2.17;100.00;97933.72;5034082;28;20025;-87
2023/01/29 03:59:50;;;;;;;49.00;21.33;;;;;;;2.13;100.00;97929.41;5052267;28;20040;-86
2023/01/29 04:02:28;;;;;;;55.92;24.38;;;;;;;2.07;100.00;97925.16;5054129;28;20052;-86
2023/01/29 04:05:08;;;;;;;70.30;30.67;;;;;;;2.11;100.00;97923.31;5050585;28;20028;-86
2023/01/29 04:07:35;;;;;;;71.45;30.42;;;;;;;2.13;100.00;97932.03;5035221;28;20504;-86
2023/01/29 04:10:08;;;;;;;72.65;31.15;;;;;;;2.17;100.00;97933.72;5066467;28;20021;-82
2023/01/29 04:12:42;;;;;;;72.30;30.45;;;;;;;2.14;100.00;97942.59;5056787;28;20086;-81
2023/01/29 04:15:10;;;;;;;72.80;31.02;;;;;;;2.20;100.00;97938.94;5048659;28;20547;-81
2023/01/29 04:17:40;;;;;;;73.18;29.70;;;;;;;2.23;100.00;97943.25;5072577;28;20099;-81
2023/01/29 04:20:06;;;;;;;63.72;29.13;;;;;;;2.04;100.00;97927.84;5041958;28;20516;-81
2023/01/29 04:22:34;;;;;;;72.95;34.28;;;;;;;1.94;100.00;97928.09;5047758;28;20057;-82
2023/01/29 04:25:07;;;;;;;60.80;26.23;;;;;;;1.82;100.00;97923.94;5040983;28;20082;-82
2023/01/29 04:28:03;;;;;;;61.30;25.55;;;;;;;1.97;100.00;97947.34;5040546;28;20519;-80
2023/01/29 04:30:34;;;;;;;51.42;23.95;;;;;;;1.99;100.00;97948.19;5065094;28;20484;-82
2023/01/29 04:33:09;;;;;;;38.87;18.43;;;;;;;2.02;100.00;97949.91;5063014;28;20481;-81
2023/01/29 04:35:58;;;;;;;54.70;23.25;;;;;;;2.00;100.00;97947.28;5069968;28;20115;-80
2023/01/29 04:38:27;;;;;;;47.17;21.85;;;;;;;2.03;100.00;97947.22;5074562;28;20031;-81
2023/01/29 04:41:08;;;;;;;54.47;23.08;;;;;;;2.00;100.00;97957.00;5073010;28;20487;-80
2023/01/29 04:43:59;;;;;;;50.97;23.85;;;;;;;2.05;100.00;97966.53;5064783;28;20104;-82
2023/01/29 04:46:57;;;;;;;51.78;22.80;;;;;;;2.09;100.00;97968.19;5055038;28;20028;-80
2023/01/29 04:49:34;;;;;;;67.22;28.38;;;;;;;1.88;100.00;97958.09;5061266;28;20044;-82
2023/01/29 04:52:37;;;;;;;64.00;27.73;;;;;;;1.94;100.00;97967.66;5055994;28;20031;-82
2023/01/29 04:55:31;;;;;;;62.67;26.83;;;;;;;1.96;100.00;97972.00;5060696;28;20396;-82
2023/01/29 04:57:59;;;;;;;57.53;24.52;;;;;;;2.01;100.00;97982.44;5073355;28;20032;-81
2023/01/29 05:00:35;;;;;;;79.07;30.48;;;;;;;1.93;100.00;97973.84;5060536;28;20059;-81
2023/01/29 05:03:02;;;;;;;72.38;31.33;;;;;;;1.84;100.00;97960.84;5056085;28;20123;-81
2023/01/29 05:05:29;;;;;;;70.40;30.42;;;;;;;1.96;100.00;97979.91;5071427;28;20024;-80
2023/01/29 05:07:56;;;;;;;63.05;28.08;;;;;;;1.94;100.00;97970.31;5048438;28;20100;-80
2023/01/29 05:10:22;;;;;;;62.75;27.75;;;;;;;2.03;100.00;97973.59;5044904;28;20028;-81
2023/01/29 05:12:52;;;;;;;61.17;23.52;;;;;;;2.04;100.00;97980.59;5058068;28;20032;-80
2023/01/29 05:15:23;;;;;;;53.20;23.13;;;;;;;2.09;100.00;97984.00;5061061;28;20024;-81
2023/01/29 05:17:48;;;;;;;57.20;25.02;;;;;;;2.00;100.00;97976.28;5050019;28;20495;-81
2023/01/29 05:20:14;;;;;;;54.38;24.20;;;;;;;1.92;100.00;97969.44;5042027;28;20019;-81
2023/01/29 05:22:40;;;;;;;77.90;32.92;;;;;;;2.02;100.00;97976.28;5062010;28;20407;-80
2023/01/29 05:25:26;;;;;;;79.80;32.72;;;;;;;2.02;100.00;97981.56;5054964;28;20103;-80
2023/01/29 05:28:05;;;;;;;88.18;33.95;;;;;;;1.95;100.00;97980.81;5064615;28;20080;-80
2023/01/29 05:30:34;;;;;;;74.65;33.30;;;;;;;2.03;100.00;97993.84;5063130;28;20043;-80
2023/01/29 05:33:01;;;;;;;62.70;28.35;;;;;;;1.99;100.00;97989.53;5041371;28;20040;-81
2023/01/29 05:35:27;;;;;;;66.97;27.15;;;;;;;1.85;100.00;97984.53;5075200;28;20028;-81
2023/01/29 05:37:56;;;;;;;59.40;27.48;;;;;;;1.90;100.00;98000.28;5049282;28;20028;-81
2023/01/29 05:40:22;;;;;;;62.78;28.48;;;;;;;1.97;100.00;98001.88;5040289;28;20476;-81
2023/01/29 05:42:49;;;;;;;68.57;28.00;;;;;;;1.98;100.00;97993.06;5054869;28;20039;-81
2023/01/29 05:45:15;;;;;;;69.80;29.90;;;;;;;1.99;100.00;98005.34;5070809;28;20505;-81
2023/01/29 05:47:41;;;;;;;68.28;29.75;;;;;;;2.02;100.00;98002.66;5069198;28;20020;-81
2023/01/29 05:50:07;;;;;;;79.72;31.83;;;;;;;1.97;100.00;98004.53;5067558;28;20396;-84
2023/01/29 05:52:33;;;;;;;72.38;31.50;;;;;;;2.06;100.00;98014.88;5054491;28;20031;-81
2023/01/29 05:54:58;;;;;;;61.25;27.27;;;;;;;2.00;100.00;98009.75;5045042;28;20028;-82
2023/01/29 05:57:24;;;;;;;61.10;26.67;;;;;;;1.98;100.00;98016.78;5054927;28;20111;-82
2023/01/29 05:59:49;;;;;;;59.72;26.50;;;;;;;2.04;100.00;98017.53;5067525;28;20411;-83
2023/01/29 06:02:15;;;;;;;52.58;23.65;;;;;;;2.15;100.00;98028.72;5054632;28;20055;-81
2023/01/29 06:04:40;;;;;;;48.08;22.90;;;;;;;2.17;100.00;98013.75;5062266;28;20029;-82
2023/01/29 06:07:06;;;;;;;43.17;20.08;;;;;;;2.11;100.00;98013.88;5082906;28;20037;-82
2023/01/29 06:09:34;;;;;;;44.33;20.58;;;;;;;2.13;100.00;98005.91;5065175;28;20025;-82
2023/01/29 06:11:59;;;;;;;57.97;26.77;;;;;;;2.15;100.00;98017.34;5044988;28;20471;-80
2023/01/29 06:14:25;;;;;;;57.53;25.92;;;;;;;2.25;100.00;98013.56;5041190;28;20059;-83
2023/01/29 06:16:51;;;;;;;52.70;23.67;;;;;;;2.30;100.00;98014.34;5051407;28;20036;-82
2023/01/29 06:19:19;;;;;;;49.50;23.83;;;;;;;2.30;100.00;98014.34;5037473;28;20028;-81
2023/01/29 06:21:45;;;;;;;52.38;22.55;;;;;;;2.36;100.00;98016.88;5039512;28;20031;-82
2023/01/29 06:24:15;;;;;;;53.47;24.27;;;;;;;2.39;100.00;98014.16;5069315;28;20028;-81
2023/01/29 06:26:41;;;;;;;49.33;24.52;;;;;;;2.42;100.00;98014.09;5074645;28;20035;-81
2023/01/29 06:29:06;;;;;;;57.75;26.08;;;;;;;2.43;100.00;98014.97;5056733;28;20480;-82
2023/01/29 06:31:32;;;;;;;52.45;25.80;;;;;;;2.43;100.00;98021.09;5046733;28;20028;-82
2023/01/29 06:33:57;;;;;;;58.08;26.48;;;;;;;2.45;100.00;98013.16;5044424;28;20020;-83
2023/01/29 06:36:23;;;;;;;53.28;24.20;;;;;;;2.45;100.00;98014.03;5072091;28;20024;-82
2023/01/29 06:38:51;;;;;;;55.55;26.15;;;;;;;2.48;100.00;98007.78;5055813;28;20025;-81
2023/01/29 06:41:18;;;;;;;68.50;32.28;;;;;;;2.52;100.00;98018.22;5053323;28;20020;-83
2023/01/29 06:43:44;;;;;;;68.85;30.40;;;;;;;2.44;100.00;98012.28;5052874;28;20024;-83
2023/01/29 06:46:10;;;;;;;89.93;42.33;;;;;;;2.44;100.00;98012.28;5038911;28;20115;-82
2023/01/29 06:48:35;;;;;;;107.15;45.58;;;;;;;2.53;100.00;98017.34;5071488;28;20553;-82
2023/01/29 06:51:06;;;;;;;71.63;33.60;;;;;;;2.52;100.00;98023.50;5040730;28;20068;-82
2023/01/29 06:53:33;;;;;;;71.47;33.75;;;;;;;2.54;100.00;98026.13;5065346;28;20039;-82
2023/01/29 06:56:22;;;;;;;71.03;30.73;;;;;;;2.51;100.00;98023.56;5052275;28;20032;-84
2023/01/29 06:58:52;;;;;;;72.53;33.05;;;;;;;2.38;100.00;98006.25;5051667;28;20058;-82
2023/01/29 07:02:29;;;;;;;61.90;27.60;;;;;;;2.51;100.00;98027.06;5054515;28;20052;-83
2023/01/29 07:04:55;;;;;;;62.70;28.30;;;;;;;2.44;100.00;98001.72;5010168;28;20058;-83
2023/01/29 07:07:20;;;;;;;71.32;31.05;;;;;;;2.48;100.00;98016.59;5060018;28;20078;-82
2023/01/29 07:09:46;;;;;;;79.70;36.67;;;;;;;2.42;100.00;98019.38;5052664;28;20035;-83
2023/01/29 07:12:23;;;;;;;66.13;29.23;;;;;;;2.36;100.00;98013.34;5056038;28;20035;-83
2023/01/29 07:14:48;;;;;;;116.72;45.08;;;;;;;2.47;100.00;98025.41;5056255;28;20021;-83
2023/01/29 07:17:20;;;;;;;56.90;25.63;;;;;;;2.36;100.00;98023.91;5047772;28;20349;-82
2023/01/29 07:23:19;;;;;;;66.80;31.38;;;;;;;2.26;100.00;97964.31;5103686;28;20093;-82
2023/01/29 07:29:05;;;;;;;78.38;31.98;;;;;;;2.59;100.00;98032.16;5099901;28;20426;-80
2023/01/29 07:31:31;;;;;;;84.63;35.08;;;;;;;2.50;100.00;98006.84;5069809;28;20032;-81
2023/01/29 07:34:09;;;;;;;73.40;33.17;;;;;;;2.41;100.00;97991.22;5077635;28;20553;-82
2023/01/29 07:36:55;;;;;;;57.92;26.52;;;;;;;2.35;100.00;97979.94;5053569;28;20054;-84
2023/01/29 07:39:28;;;;;;;63.13;31.17;;;;;;;2.60;100.00;98016.31;5045587;28;20024;-82
2023/01/29 07:41:57;;;;;;;103.75;40.85;;;;;;;2.46;100.00;97993.78;5039052;28;20032;-81
2023/01/29 07:44:28;;;;;;;163.75;60.95;;;;;;;2.66;100.00;98024.09;5076091;28;20054;-82
2023/01/29 07:46:53;;;;;;;134.75;54.28;;;;;;;2.72;100.00;98016.03;5069381;28;20024;-83
2023/01/29 07:49:19;;;;;;;128.20;53.92;;;;;;;2.64;100.00;97994.22;5060919;28;20393;-81
2023/01/29 07:51:45;;;;;;;108.05;49.95;;;;;;;2.88;100.00;98013.88;5059562;28;20487;-82
2023/01/29 07:54:11;;;;;;;82.22;37.38;;;;;;;2.95;100.00;98014.59;5059900;28;20034;-79
2023/01/29 07:56:36;;;;;;;70.57;34.97;;;;;;;2.97;100.00;98008.38;5054666;28;20028;-79
2023/01/29 07:59:04;;;;;;;67.47;31.52;;;;;;;2.99;100.00;98010.97;5058808;28;20024;-79
2023/01/29 08:01:30;;;;;;;69.82;33.20;;;;;;;3.15;100.00;98012.31;5065939;28;20059;-80
2023/01/29 08:03:55;;;;;;;64.20;28.45;;;;;;;3.26;100.00;98015.59;5069534;28;20032;-79
2023/01/29 08:06:21;;;;;;;88.47;41.80;;;;;;;3.32;100.00;98022.50;5041556;28;20037;-79
2023/01/29 08:08:46;;;;;;;54.53;25.05;;;;;;;3.45;100.00;98021.25;5039791;28;20036;-79
2023/01/29 08:11:12;;;;;;;54.03;24.83;;;;;;;3.51;100.00;98005.22;5071240;28;20086;-78
2023/01/29 08:13:38;;;;;;;45.78;22.65;;;;;;;3.50;100.00;97999.09;5056564;28;20515;-79
2023/01/29 08:16:07;;;;;;;33.88;17.23;;;;;;;3.47;100.00;98008.88;5040587;28;20008;-81
2023/01/29 08:29:08;;;;;;;46.25;21.77;;;;;;;3.22;100.00;98004.22;5082334;28;20027;-80
2023/01/29 08:31:37;;;;;;;56.50;24.08;;;;;;;2.83;100.00;97983.22;5077509;28;20046;-80
2023/01/29 08:34:22;;;;;;;;;;;;;;;;;;;;;
2023/01/29 08:36:55;;;;;;;57.88;27.10;;;;;;;2.96;100.00;98034.81;5078956;28;20030;-81
2023/01/29 08:39:24;;;;;;;55.28;24.85;;;;;;;2.95;100.00;98033.09;5060191;28;20404;-79
2023/01/29 08:41:52;;;;;;;73.93;34.75;;;;;;;3.00;100.00;98015.34;5078020;28;20030;-80
2023/01/29 08:50:50;;;;;;;62.63;28.20;;;;;;;2.53;100.00;98033.19;5065856;28;20114;-80
2023/01/29 08:53:17;;;;;;;62.70;26.45;;;;;;;2.57;100.00;98049.81;5059112;28;20513;-80
2023/01/29 08:55:47;;;;;;;67.30;28.35;;;;;;;2.48;100.00;98045.63;5051554;28;20036;-81
2023/01/29 09:01:37;;;;;;;72.95;30.80;;;;;;;2.73;100.00;98070.59;5072180;28;20186;-82
2023/01/29 09:04:09;;;;;;;72.13;30.75;;;;;;;2.70;100.00;98052.16;5074987;28;20036;-79
2023/01/29 09:06:35;;;;;;;84.00;33.50;;;;;;;2.69;100.00;98052.19;5047267;28;20494;-82
2023/01/29 09:09:03;;;;;;;84.40;35.05;;;;;;;2.82;100.00;98063.34;5039750;28;20025;-79
2023/01/29 09:11:29;;;;;;;65.40;30.90;;;;;;;2.86;100.00;98047.38;5047224;28;20020;-81
2023/01/29 09:13:54;;;;;;;78.13;32.80;;;;;;;2.90;100.00;98053.47;5039383;28;20057;-81
2023/01/29 09:16:20;;;;;;;95.18;42.50;;;;;;;2.89;100.00;98047.31;5040346;28;20090;-80
2023/01/29 09:18:45;;;;;;;98.75;41.63;;;;;;;2.93;100.00;98042.81;5075254;28;20469;-80
2023/01/29 09:21:11;;;;;;;102.78;47.42;;;;;;;2.92;100.00;98030.53;5058401;28;20102;-81
2023/01/29 09:23:37;;;;;;;117.82;52.97;;;;;;;2.98;100.00;98035.66;5059023;28;20055;-79
2023/01/29 09:26:02;;;;;;;124.30;52.90;;;;;;;3.07;100.00;98030.16;5042038;28;20468;-81
2023/01/29 09:28:28;;;;;;;70.90;32.97;;;;;;;3.20;100.00;98037.72;5039544;28;20029;-81
2023/01/29 09:30:54;;;;;;;73.90;36.53;;;;;;;3.22;100.00;98019.22;5046497;28;20389;-79
2023/01/29 09:33:19;;;;;;;115.57;50.78;;;;;;;3.24;100.00;98007.69;5038475;28;20048;-80
2023/01/29 09:35:54;;;;;;;60.50;30.60;;;;;;;3.24;100.00;98001.53;5045914;28;20099;-80
2023/01/29 09:38:20;;;;;;;72.57;33.00;;;;;;;3.39;100.00;97987.03;5055204;28;20442;-79
2023/01/29 09:40:46;;;;;;;69.93;32.90;;;;;;;3.31;100.00;97976.66;5041851;28;20032;-80
2023/01/29 09:43:19;;;;;;;68.05;31.73;;;;;;;3.22;100.00;97969.84;5066828;28;20024;-81
2023/01/29 09:45:55;;;;;;;60.70;28.02;;;;;;;3.17;100.00;97963.81;5054810;28;20477;-81
2023/01/29 09:48:26;;;;;;;53.70;25.23;;;;;;;3.26;100.00;97965.38;5054695;28;20105;-81
2023/01/29 09:51:04;;;;;;;68.13;29.05;;;;;;;3.09;100.00;97938.50;5068901;28;20027;-79
2023/01/29 09:53:39;;;;;;;70.13;31.58;;;;;;;3.21;100.00;97951.38;5052327;28;20111;-77
2023/01/29 09:56:13;;;;;;;73.18;33.22;;;;;;;3.34;100.00;97950.16;5058980;28;20479;-80
2023/01/29 09:58:41;;;;;;;62.97;30.02;;;;;;;3.54;100.00;97968.09;5041092;28;20021;-80
2023/01/29 10:01:27;;;;;;;54.38;26.75;;;;;;;3.55;100.00;97954.84;5051149;28;20131;-75
2023/01/29 10:04:17;;;;;;;69.57;28.67;;;;;;;3.41;100.00;97935.88;5071033;28;20100;-75
2023/01/29 10:06:57;;;;;;;38.58;19.58;;;;;;;3.47;100.00;97941.00;5061885;28;20036;-75
2023/01/29 10:09:32;;;;;;;40.42;21.15;;;;;;;3.43;100.00;97935.81;5069227;28;20028;-77
2023/01/29 10:12:01;;;;;;;36.13;18.85;;;;;;;3.41;100.00;97935.00;5041061;28;20531;-77
2023/01/29 10:14:42;;;;;;;32.58;16.92;;;;;;;3.54;100.00;97936.38;5070080;28;20043;-76
2023/01/29 10:17:34;;;;;;;38.45;19.25;;;;;;;3.34;100.00;97907.88;5062227;28;20025;-76
2023/01/29 10:20:24;;;;;;;24.30;12.52;;;;;;;3.15;100.00;97904.84;5034081;28;20028;-77
2023/01/29 10:23:37;;;;;;;25.52;12.48;;;;;;;2.92;100.00;97885.25;5039784;28;20035;-77
2023/01/29 10:26:03;;;;;;;25.27;13.90;;;;;;;2.93;100.00;97900.16;4978451;28;20553;-77
2023/01/29 10:28:30;;;;;;;22.48;11.63;;;;;;;2.81;100.00;97895.19;5071281;28;20028;-78
2023/01/29 10:31:08;;;;;;;31.10;15.27;;;;;;;2.77;100.00;97898.84;5054235;28;20463;-77
2023/01/29 10:33:39;;;;;;;38.17;18.10;;;;;;;2.94;100.00;97907.19;5051333;28;20135;-77
2023/01/29 10:36:09;;;;;;;37.45;17.77;;;;;;;2.92;100.00;97906.38;5063402;28;20479;-78
2023/01/29 10:38:47;;;;;;;34.22;17.38;;;;;;;2.91;100.00;97909.91;5048045;28;20047;-77
2023/01/29 10:41:20;;;;;;;30.00;16.02;;;;;;;2.96;100.00;97911.53;5057035;28;20025;-77
2023/01/29 10:43:57;;;;;;;34.28;14.98;;;;;;;3.16;100.00;97913.66;5051384;28;20043;-78
2023/01/29 10:46:33;;;;;;;26.38;12.50;;;;;;;3.20;100.00;97921.44;5086152;28;20031;-79
2023/01/29 10:49:32;;;;;;;35.47;15.73;;;;;;;3.34;100.00;97928.13;5037852;28;20617;-76
2023/01/29 10:52:09;;;;;;;40.63;16.85;;;;;;;3.31;100.00;97897.38;5089284;28;20574;-75
2023/01/29 10:54:56;;;;;;;23.45;11.57;;;;;;;3.40;100.00;97883.91;5068381;28;20023;-75
2023/01/29 10:57:37;;;;;;;16.48;9.27;;;;;;;3.40;100.00;97865.38;5086622;28;20534;-76
2023/01/29 11:00:16;;;;;;;25.90;13.52;;;;;;;3.38;100.00;97851.38;5055752;28;20059;-77
2023/01/29 11:02:47;;;;;;;36.33;16.45;;;;;;;3.51;100.00;97867.72;5050072;28;20581;-76
2023/01/29 11:05:24;;;;;;;82.78;32.08;;;;;;;3.65;100.00;97870.84;5062736;28;20506;-78
2023/01/29 11:08:00;;;;;;;31.48;13.88;;;;;;;3.78;100.00;97880.16;5065794;28;20045;-75
2023/01/29 11:10:25;;;;;;;22.55;11.00;;;;;;;3.70;100.00;97856.56;5050662;28;20032;-78
2023/01/29 11:12:52;;;;;;;23.95;10.30;;;;;;;3.46;100.00;97859.94;5049762;28;20412;-79
2023/01/29 11:15:21;;;;;;;26.45;13.05;;;;;;;3.39;100.00;97876.88;5052090;28;20037;-77
2023/01/29 11:18:20;;;;;;;31.20;13.65;;;;;;;3.49;100.00;97891.56;5036984;28;20093;-78
2023/01/29 11:20:46;;;;;;;30.23;14.93;;;;;;;3.58;100.00;97885.13;5012991;28;20052;-81
2023/01/29 11:23:29;;;;;;;39.40;17.42;;;;;;;3.57;100.00;97868.41;5054210;28;20033;-81
2023/01/29 11:25:56;;;;;;;41.47;19.52;;;;;;;3.62;100.00;97870.94;5054708;28;20028;-77
2023/01/29 11:28:45;;;;;;;34.72;17.70;;;;;;;3.65;100.00;97860.25;5047383;28;20424;-77
2023/01/29 11:31:26;;;;;;;39.58;16.92;;;;;;;3.64;100.00;97834.72;5051021;28;20032;-78
2023/01/29 11:34:01;;;;;;;33.70;16.97;;;;;;;3.67;100.00;97838.13;5045560;28;20024;-76
2023/01/29 11:36:38;;;;;;;45.35;17.52;;;;;;;3.77;100.00;97858.13;5038122;28;20287;-77
2023/01/29 11:39:14;;;;;;;29.77;14.02;;;;;;;3.84;100.00;97846.41;5036960;28;20079;-77
2023/01/29 11:41:47;;;;;;;38.30;18.58;;;;;;;3.78;100.00;97829.88;5036713;28;20102;-77
2023/01/29 11:44:29;;;;;;;39.42;18.75;;;;;;;3.76;100.00;97832.56;5050785;28;20033;-77
2023/01/29 11:47:07;;;;;;;53.72;24.92;;;;;;;3.90;100.00;97847.16;5050191;28;20105;-76
2023/01/29 11:49:34;;;;;;;46.85;24.48;;;;;;;3.83;100.00;97843.84;5056324;28;20033;-80
2023/01/29 11:52:02;;;;;;;44.13;22.63;;;;;;;3.68;100.00;97836.38;5039628;28;20048;-81
2023/01/29 11:54:32;;;;;;;42.85;22.50;;;;;;;3.55;100.00;97833.22;5065918;28;20032;-81
2023/01/29 11:56:57;;;;;;;45.72;23.38;;;;;;;3.45;100.00;97836.16;5042887;28;20393;-79
2023/01/29 11:59:29;;;;;;;45.55;22.15;;;;;;;3.49;100.00;97845.75;5056490;28;20028;-77
2023/01/29 12:01:55;;;;;;;35.05;17.05;;;;;;;3.48;100.00;97849.28;5070474;28;20099;-76
2023/01/29 12:04:23;;;;;;;46.65;22.25;;;;;;;3.42;100.00;97831.84;5053892;28;20042;-81
2023/01/29 12:06:52;;;;;;;30.30;15.68;;;;;;;3.57;100.00;97847.25;5069830;28;20024;-78
2023/01/29 12:09:28;;;;;;;34.45;18.48;;;;;;;3.66;100.00;97839.03;5044795;28;20028;-76
2023/01/29 12:11:54;;;;;;;37.13;16.98;;;;;;;3.75;100.00;97833.47;5064927;28;20032;-76
2023/01/29 12:14:33;;;;;;;34.25;17.60;;;;;;;3.86;100.00;97821.69;5065652;28;20502;-75
2023/01/29 12:17:12;;;;;;;36.83;18.58;;;;;;;4.05;100.00;97829.03;5052127;28;20031;-75
2023/01/29 12:19:52;;;;;;;40.65;18.83;;;;;;;4.20;100.00;97827.66;5055657;28;20068;-77
2023/01/29 12:22:46;;;;;;;37.75;20.50;;;;;;;4.13;100.00;97797.00;5063019;28;20028;-76
2023/01/29 12:25:35;;;;;;;32.47;16.90;;;;;;;4.26;100.00;97801.00;5071918;28;20085;-76
2023/01/29 12:28:18;;;;;;;37.78;19.05;;;;;;;4.15;100.00;97796.03;5070829;28;20028;-75
2023/01/29 12:30:45;;;;;;;34.38;15.65;;;;;;;4.17;100.00;97796.00;5065365;28;20029;-76
2023/01/29 12:33:17;;;;;;;27.13;14.07;;;;;;;4.07;100.00;97784.84;5072097;28;20028;-76